Terminal Aerodrome Forecast
Issued by NWS Omaha/Valley, NE

Home | Current Version | Previous Version | Text Only | Print | Product List | Glossary Off
Versions: 1 2 3 4 5 6 7 8 9 10 11 12 13 14 15 16 17 18 19 20 21 22 23 24 25

000
FTUS43 KOAX 222320
TAFOFK
TAF
KOFK 222320Z 2300/2324 17015G23KT P6SM SCT250 WS020/19045KT
     FM230800 17011KT P6SM BKN200
     FM231800 17012G20KT P6SM BKN090 PROB30 2320/2324 4SM -TSRA
      OVC040CB=

USA.gov is the U.S. government's official web portal to all federal, state and local government web resources and services.